createdAt,value
2022-12-06T00:01:06.688Z,14.40
2022-12-06T00:03:35.353Z,14.40
2022-12-06T00:06:04.204Z,14.40
2022-12-06T00:08:32.649Z,14.40
2022-12-06T00:11:04.635Z,14.40
2022-12-06T00:13:33.053Z,14.40
2022-12-06T00:16:04.103Z,14.40
2022-12-06T00:18:33.851Z,14.40
2022-12-06T00:21:07.710Z,14.40
2022-12-06T00:23:37.315Z,14.30
2022-12-06T00:26:06.152Z,14.30
2022-12-06T00:28:34.704Z,14.30
2022-12-06T00:31:05.687Z,14.30
2022-12-06T00:33:34.850Z,14.30
2022-12-06T00:36:03.902Z,14.30
2022-12-06T00:38:32.568Z,14.30
2022-12-06T00:41:01.248Z,14.30
2022-12-06T00:43:29.739Z,14.40
2022-12-06T00:45:58.178Z,14.40
2022-12-06T00:48:28.120Z,14.50
2022-12-06T00:50:56.746Z,14.50
2022-12-06T00:53:25.397Z,14.50
2022-12-06T00:55:55.134Z,14.40
2022-12-06T00:58:23.894Z,14.40
2022-12-06T01:00:52.689Z,14.40
2022-12-06T01:03:21.230Z,14.40
2022-12-06T01:05:51.896Z,14.40
2022-12-06T01:08:20.716Z,14.40
2022-12-06T01:10:55.485Z,14.30
2022-12-06T01:13:23.866Z,14.30
2022-12-06T01:15:53.576Z,14.30
2022-12-06T01:18:22.281Z,14.30
2022-12-06T01:20:52.107Z,14.30
2022-12-06T01:23:20.552Z,14.30
2022-12-06T01:25:52.411Z,14.30
2022-12-06T01:28:20.851Z,14.20
2022-12-06T01:30:49.379Z,14.20
2022-12-06T01:33:17.853Z,14.20
2022-12-06T01:35:46.311Z,14.20
2022-12-06T01:38:16.185Z,14.20
2022-12-06T01:40:45.672Z,14.20
2022-12-06T01:43:33.263Z,14.20
2022-12-06T01:46:04.050Z,14.20
2022-12-06T01:48:33.655Z,14.20
2022-12-06T01:51:02.043Z,14.20
2022-12-06T01:53:32.231Z,14.30
2022-12-06T01:56:00.681Z,14.30
2022-12-06T01:58:32.300Z,14.30
2022-12-06T02:01:02.185Z,14.30
2022-12-06T02:03:33.416Z,14.30
2022-12-06T02:06:02.440Z,14.30
2022-12-06T02:08:32.961Z,14.20
2022-12-06T02:11:03.061Z,14.20
2022-12-06T02:13:32.335Z,14.30
2022-12-06T02:16:06.310Z,14.30
2022-12-06T02:18:36.183Z,14.30
2022-12-06T02:21:10.036Z,14.30
2022-12-06T02:23:55.812Z,14.20
2022-12-06T02:26:29.913Z,14.20
2022-12-06T02:29:10.719Z,14.20
2022-12-06T02:31:42.956Z,14.30
2022-12-06T02:34:14.381Z,14.20
2022-12-06T02:36:47.405Z,14.20
2022-12-06T02:39:20.599Z,14.20
2022-12-06T02:41:50.938Z,14.20
2022-12-06T02:44:25.504Z,14.20
2022-12-06T02:46:56.792Z,14.10
2022-12-06T02:49:27.311Z,14.20
2022-12-06T02:51:55.780Z,14.20
2022-12-06T02:54:24.771Z,14.20
2022-12-06T02:56:53.251Z,14.20
2022-12-06T02:59:21.652Z,14.10
2022-12-06T03:01:53.556Z,14.20
2022-12-06T03:04:47.526Z,14.10
2022-12-06T03:07:32.980Z,14.20
2022-12-06T03:10:23.481Z,14.10
2022-12-06T03:13:00.188Z,14.10
2022-12-06T03:15:42.284Z,14.10
2022-12-06T03:18:16.970Z,14.10
2022-12-06T03:20:53.041Z,14.00
2022-12-06T03:23:26.336Z,14.00
2022-12-06T03:25:57.794Z,14.00
2022-12-06T03:28:27.426Z,14.00
2022-12-06T03:30:59.349Z,14.00
2022-12-06T03:33:29.291Z,14.00
2022-12-06T03:35:59.370Z,13.90
2022-12-06T03:38:30.819Z,13.90
2022-12-06T03:41:02.662Z,13.80
2022-12-06T03:43:31.121Z,13.80
2022-12-06T03:46:03.080Z,13.80
2022-12-06T03:48:35.209Z,13.80
2022-12-06T03:51:08.696Z,13.80
2022-12-06T03:53:45.971Z,13.80
2022-12-06T03:56:14.752Z,13.80
2022-12-06T03:58:43.549Z,13.80
2022-12-06T04:01:12.340Z,13.90
2022-12-06T04:03:41.210Z,13.90
2022-12-06T04:06:12.953Z,13.90
2022-12-06T04:08:42.191Z,13.90
2022-12-06T04:11:10.877Z,13.80
2022-12-06T04:13:40.903Z,13.80
2022-12-06T04:16:24.172Z,13.80
2022-12-06T04:18:52.962Z,13.80
2022-12-06T04:21:41.067Z,13.70
2022-12-06T04:24:09.813Z,13.70
2022-12-06T04:26:38.518Z,13.60
2022-12-06T04:29:24.412Z,13.60
2022-12-06T04:32:10.316Z,13.60
2022-12-06T04:34:56.418Z,13.60
2022-12-06T04:37:43.518Z,13.60
2022-12-06T04:40:12.714Z,13.50
2022-12-06T04:42:58.446Z,13.50
2022-12-06T04:45:27.181Z,13.50
2022-12-06T04:47:55.911Z,13.60
2022-12-06T04:50:24.629Z,13.60
2022-12-06T04:52:54.476Z,13.60
2022-12-06T04:55:23.537Z,13.70
2022-12-06T04:57:52.361Z,13.60
2022-12-06T05:00:21.612Z,13.70
2022-12-06T05:02:50.327Z,13.70
2022-12-06T05:05:19.078Z,13.70
2022-12-06T05:07:47.742Z,13.70
2022-12-06T05:10:17.956Z,13.70
2022-12-06T05:12:46.682Z,13.70
2022-12-06T05:15:16.064Z,13.80
2022-12-06T05:17:44.777Z,13.80
2022-12-06T05:20:15.037Z,13.90
2022-12-06T05:22:43.899Z,13.90
2022-12-06T05:25:12.783Z,14.00
2022-12-06T05:27:42.969Z,14.00
2022-12-06T05:30:12.612Z,14.00
2022-12-06T05:32:41.473Z,14.00
2022-12-06T05:35:10.905Z,14.10
2022-12-06T05:37:39.586Z,14.10
2022-12-06T05:40:09.164Z,14.10
2022-12-06T05:42:37.897Z,14.10
2022-12-06T05:45:09.145Z,14.10
2022-12-06T05:47:37.907Z,14.10
2022-12-06T05:50:08.406Z,14.10
2022-12-06T05:52:37.109Z,14.10
2022-12-06T05:55:06.337Z,14.20
2022-12-06T05:57:35.133Z,14.20
2022-12-06T06:00:05.579Z,14.10
2022-12-06T06:02:35.945Z,14.10
2022-12-06T06:05:05.182Z,14.10
2022-12-06T06:07:34.015Z,14.10
2022-12-06T06:10:03.127Z,14.10
2022-12-06T06:12:32.087Z,14.10
2022-12-06T06:15:00.788Z,14.10
2022-12-06T06:17:29.501Z,14.10
2022-12-06T06:19:59.794Z,14.10
2022-12-06T06:22:28.621Z,14.10
2022-12-06T06:24:57.392Z,14.10
2022-12-06T06:27:26.140Z,14.10
2022-12-06T06:29:54.848Z,14.10
2022-12-06T06:32:23.522Z,14.10
2022-12-06T06:34:52.252Z,14.00
2022-12-06T06:37:22.330Z,14.00
2022-12-06T06:39:51.142Z,14.00
2022-12-06T06:42:19.933Z,14.00
2022-12-06T06:44:48.458Z,14.10
2022-12-06T06:47:16.814Z,14.10
2022-12-06T06:49:45.268Z,14.00
2022-12-06T06:52:13.691Z,13.90
2022-12-06T06:54:43.471Z,13.90
2022-12-06T06:57:17.330Z,13.80
2022-12-06T06:59:46.504Z,13.80
2022-12-06T07:02:15.232Z,13.80
2022-12-06T07:04:43.624Z,13.80
2022-12-06T07:07:15.391Z,13.80
2022-12-06T07:09:50.556Z,13.90
2022-12-06T07:12:18.920Z,13.90
2022-12-06T07:14:47.291Z,13.90
2022-12-06T07:17:15.765Z,13.90
2022-12-06T07:19:44.240Z,14.00
2022-12-06T07:22:12.664Z,14.10
2022-12-06T07:24:42.983Z,14.20
2022-12-06T07:27:15.422Z,14.30
2022-12-06T07:29:43.802Z,14.30
2022-12-06T07:32:12.228Z,14.40
2022-12-06T07:34:40.732Z,14.50
2022-12-06T07:37:09.270Z,14.50
2022-12-06T07:39:37.668Z,14.50
2022-12-06T07:42:23.920Z,14.60
2022-12-06T07:45:03.489Z,14.70
2022-12-06T07:47:34.951Z,14.70
2022-12-06T07:50:05.160Z,14.70
2022-12-06T07:52:34.475Z,14.70
2022-12-06T07:55:03.557Z,14.70
2022-12-06T07:57:32.230Z,14.80
2022-12-06T08:00:02.943Z,14.90
2022-12-06T08:02:31.865Z,14.90
2022-12-06T08:05:00.609Z,14.90
2022-12-06T08:07:29.832Z,15.00
2022-12-06T08:09:58.725Z,14.90
2022-12-06T08:12:27.323Z,15.00
2022-12-06T08:14:59.581Z,15.10
2022-12-06T08:17:30.432Z,15.00
2022-12-06T08:19:59.172Z,15.00
2022-12-06T08:22:28.997Z,15.10
2022-12-06T08:24:57.495Z,15.20
2022-12-06T08:27:25.929Z,15.20
2022-12-06T08:29:54.362Z,15.30
2022-12-06T08:32:22.743Z,15.40
2022-12-06T08:34:52.482Z,15.50
2022-12-06T08:37:20.900Z,15.60
2022-12-06T08:39:49.324Z,15.70
2022-12-06T08:42:23.604Z,15.70
2022-12-06T08:44:54.521Z,15.60
2022-12-06T08:47:22.963Z,15.60
2022-12-06T08:49:52.720Z,15.50
2022-12-06T08:52:21.127Z,15.60
2022-12-06T08:54:49.525Z,15.60
2022-12-06T08:57:17.975Z,15.70
2022-12-06T08:59:46.901Z,15.70
2022-12-06T09:02:15.359Z,15.80
2022-12-06T09:04:43.864Z,15.80
2022-12-06T09:07:13.587Z,15.90
2022-12-06T09:09:42.169Z,16.00
2022-12-06T09:12:10.607Z,16.00
2022-12-06T09:14:39.320Z,16.00
2022-12-06T09:17:07.811Z,16.10
2022-12-06T09:19:36.312Z,16.10
2022-12-06T09:22:04.952Z,16.10
2022-12-06T09:24:34.895Z,16.20
2022-12-06T09:27:03.252Z,16.20
2022-12-06T09:29:33.825Z,16.30
2022-12-06T09:32:05.977Z,16.40
2022-12-06T09:34:34.335Z,16.50
2022-12-06T09:37:04.857Z,16.40
2022-12-06T09:39:35.868Z,16.20
2022-12-06T09:42:21.956Z,16.10
2022-12-06T09:45:00.890Z,15.90
2022-12-06T09:47:36.784Z,16.00
2022-12-06T09:50:10.039Z,16.10
2022-12-06T09:52:53.477Z,16.10
2022-12-06T09:55:32.814Z,16.10
2022-12-06T09:58:07.569Z,16.10
2022-12-06T10:00:40.835Z,16.20
2022-12-06T10:03:24.126Z,16.10
2022-12-06T10:06:01.131Z,16.10
2022-12-06T10:08:41.087Z,16.30
2022-12-06T10:11:17.428Z,16.30
2022-12-06T10:13:54.534Z,16.30
2022-12-06T10:16:28.148Z,16.10
2022-12-06T10:19:04.720Z,16.10
2022-12-06T10:21:37.865Z,16.10
2022-12-06T10:24:14.160Z,16.00
2022-12-06T10:26:46.835Z,15.80
2022-12-06T10:29:25.791Z,15.70
2022-12-06T10:31:58.155Z,15.70
2022-12-06T10:34:31.811Z,15.70
2022-12-06T10:37:05.349Z,15.70
2022-12-06T10:39:38.884Z,15.60
2022-12-06T10:42:13.207Z,15.60
2022-12-06T10:44:45.778Z,15.80
2022-12-06T10:47:14.812Z,15.70
2022-12-06T10:49:48.004Z,15.80
2022-12-06T10:52:26.638Z,15.90
2022-12-06T10:54:58.367Z,15.80
2022-12-06T10:57:32.045Z,15.80
2022-12-06T11:00:04.359Z,15.70
2022-12-06T11:02:38.122Z,15.80
2022-12-06T11:05:11.276Z,15.80
2022-12-06T11:07:42.250Z,15.90
2022-12-06T11:10:16.163Z,15.90
2022-12-06T11:12:46.215Z,15.90
2022-12-06T11:15:17.447Z,15.70
2022-12-06T11:17:48.750Z,15.70
2022-12-06T11:20:22.746Z,15.70
2022-12-06T11:22:54.657Z,15.70
2022-12-06T11:25:26.827Z,15.70
2022-12-06T11:27:57.510Z,15.70
2022-12-06T11:30:26.049Z,15.70
2022-12-06T11:32:55.623Z,15.70
2022-12-06T11:35:25.661Z,15.70
2022-12-06T11:37:59.411Z,15.90
2022-12-06T11:40:29.423Z,15.90
2022-12-06T11:43:00.874Z,15.90
2022-12-06T11:45:31.149Z,15.90
2022-12-06T11:48:01.916Z,16.00
2022-12-06T11:50:31.308Z,16.00
2022-12-06T11:53:02.812Z,16.00
2022-12-06T11:55:33.319Z,16.00
2022-12-06T11:58:05.066Z,16.10
2022-12-06T12:00:33.509Z,16.10
2022-12-06T12:03:01.972Z,16.20
2022-12-06T12:05:34.279Z,16.20
2022-12-06T12:08:04.060Z,16.30
2022-12-06T12:10:34.138Z,16.40
2022-12-06T12:13:35.112Z,16.50
2022-12-06T12:16:05.088Z,16.40
2022-12-06T12:18:35.918Z,16.40
2022-12-06T12:21:05.856Z,16.30
2022-12-06T12:23:35.748Z,16.40
2022-12-06T12:26:05.119Z,16.50
2022-12-06T12:28:36.031Z,16.50
2022-12-06T12:31:10.366Z,16.40
2022-12-06T12:33:38.763Z,16.40
2022-12-06T12:36:14.615Z,16.50
2022-12-06T12:38:44.380Z,16.60
2022-12-06T12:41:28.799Z,16.60
2022-12-06T12:46:55.500Z,16.60
2022-12-06T12:49:25.911Z,16.60
2022-12-06T12:51:54.311Z,16.60
2022-12-06T12:54:24.371Z,16.70
2022-12-06T12:56:52.820Z,16.50
2022-12-06T12:59:24.216Z,16.50
2022-12-06T13:01:54.568Z,16.40
2022-12-06T13:04:31.994Z,16.50
2022-12-06T13:07:02.649Z,16.50
2022-12-06T13:09:33.459Z,16.50
2022-12-06T13:12:04.474Z,16.30
2022-12-06T13:14:35.686Z,16.30
2022-12-06T13:17:06.685Z,16.40
2022-12-06T13:19:37.132Z,16.50
2022-12-06T13:22:06.069Z,16.50
2022-12-06T13:24:37.551Z,16.40
2022-12-06T13:27:08.515Z,16.50
2022-12-06T13:29:39.784Z,16.40
2022-12-06T13:32:10.415Z,16.40
2022-12-06T13:34:40.615Z,16.30
2022-12-06T13:37:27.521Z,16.10
2022-12-06T13:39:56.014Z,16.20
2022-12-06T13:42:40.970Z,16.10
2022-12-06T13:45:24.176Z,16.00
2022-12-06T13:47:53.960Z,16.00
2022-12-06T13:50:40.714Z,15.90
2022-12-06T13:53:09.155Z,15.80
2022-12-06T13:55:59.310Z,15.80
2022-12-06T13:58:49.942Z,15.70
2022-12-06T14:01:41.870Z,15.70
2022-12-06T14:07:00.110Z,15.60
2022-12-06T14:09:29.772Z,15.70
2022-12-06T14:12:00.632Z,15.60
2022-12-06T14:14:29.068Z,15.60
2022-12-06T14:17:00.039Z,15.70
2022-12-06T14:19:32.587Z,15.60
2022-12-06T14:22:03.253Z,15.60
2022-12-06T14:24:33.516Z,15.60
2022-12-06T14:27:05.753Z,15.60
2022-12-06T14:29:34.227Z,15.50
2022-12-06T14:32:02.613Z,15.50
2022-12-06T14:34:32.466Z,15.40
2022-12-06T14:37:03.227Z,15.30
2022-12-06T14:39:32.892Z,15.20
2022-12-06T14:42:19.822Z,15.20
2022-12-06T14:44:49.250Z,15.20
2022-12-06T14:47:19.541Z,15.20
2022-12-06T14:50:10.180Z,15.20
2022-12-06T14:52:55.353Z,15.20
2022-12-06T14:55:24.012Z,15.10
2022-12-06T14:57:56.493Z,15.10
2022-12-06T15:00:27.753Z,15.00
2022-12-06T15:03:01.055Z,15.00
2022-12-06T15:05:33.401Z,14.90
2022-12-06T15:08:16.676Z,14.90
2022-12-06T15:10:55.927Z,14.90
2022-12-06T15:13:23.310Z,14.90
2022-12-06T15:16:01.827Z,14.90
2022-12-06T15:18:32.657Z,14.80
2022-12-06T15:21:01.335Z,14.90
2022-12-06T15:23:36.070Z,14.90
2022-12-06T15:26:06.830Z,15.00
2022-12-06T15:28:37.711Z,14.90
2022-12-06T15:31:07.441Z,14.90
2022-12-06T15:33:35.877Z,14.90
2022-12-06T15:36:04.420Z,14.90
2022-12-06T15:38:32.852Z,15.00
2022-12-06T15:41:01.225Z,15.00
2022-12-06T15:43:32.304Z,15.00
2022-12-06T15:46:02.410Z,14.90
2022-12-06T15:48:31.269Z,14.80
2022-12-06T15:51:00.422Z,14.90
2022-12-06T15:53:29.220Z,14.90
2022-12-06T15:55:57.854Z,14.90
2022-12-06T15:58:26.480Z,14.90
2022-12-06T16:00:57.631Z,14.90
2022-12-06T16:03:26.064Z,14.90
2022-12-06T16:05:54.537Z,14.80
2022-12-06T16:08:23.010Z,14.80
2022-12-06T16:13:39.895Z,14.80
2022-12-06T16:16:10.075Z,14.70
2022-12-06T16:18:38.546Z,14.80
2022-12-06T16:21:07.321Z,14.80
2022-12-06T16:26:44.297Z,14.70
2022-12-06T16:29:14.064Z,14.70
2022-12-06T16:31:44.117Z,14.60
2022-12-06T16:34:12.603Z,14.60
2022-12-06T16:36:57.209Z,14.60
2022-12-06T16:39:25.920Z,14.50
2022-12-06T16:41:54.331Z,14.50
2022-12-06T16:44:22.757Z,14.50
2022-12-06T16:46:52.955Z,14.50
2022-12-06T16:49:45.299Z,14.50
2022-12-06T16:52:11.097Z,14.50
2022-12-06T16:54:41.673Z,14.50
2022-12-06T16:57:11.006Z,14.50
2022-12-06T16:59:40.534Z,14.40
2022-12-06T17:02:19.930Z,14.50
2022-12-06T17:04:48.376Z,14.50
2022-12-06T17:07:16.729Z,14.40
2022-12-06T17:09:45.185Z,14.50
2022-12-06T17:12:15.219Z,14.40
2022-12-06T17:14:44.026Z,14.40
2022-12-06T17:17:13.849Z,14.40
2022-12-06T17:19:43.925Z,14.40
2022-12-06T17:22:12.852Z,14.40
2022-12-06T17:24:41.307Z,14.40
2022-12-06T17:27:10.225Z,14.40
2022-12-06T17:29:38.785Z,14.40
2022-12-06T17:32:07.539Z,14.40
2022-12-06T17:34:36.304Z,14.40
2022-12-06T17:37:06.322Z,14.30
2022-12-06T17:39:34.806Z,14.40
2022-12-06T17:42:20.948Z,14.40
2022-12-06T17:44:50.479Z,14.40
2022-12-06T17:47:18.911Z,14.40
2022-12-06T17:49:47.503Z,14.40
2022-12-06T17:52:17.559Z,14.40
2022-12-06T17:54:45.913Z,14.40
2022-12-06T17:57:17.766Z,14.40
2022-12-06T17:59:46.852Z,14.40
2022-12-06T18:02:17.207Z,14.40
2022-12-06T18:04:46.527Z,14.40
2022-12-06T18:07:15.317Z,14.40
2022-12-06T18:09:45.390Z,14.30
2022-12-06T18:12:14.718Z,14.40
2022-12-06T18:14:43.145Z,14.40
2022-12-06T18:17:11.557Z,14.40
2022-12-06T18:19:40.855Z,14.40
2022-12-06T18:22:09.325Z,14.30
2022-12-06T18:24:37.806Z,14.30
2022-12-06T18:27:07.835Z,14.30
2022-12-06T18:29:36.414Z,14.30
2022-12-06T18:32:04.923Z,14.30
2022-12-06T18:34:33.273Z,14.30
2022-12-06T18:37:01.692Z,14.30
2022-12-06T18:39:30.142Z,14.30
2022-12-06T18:41:58.535Z,14.30
2022-12-06T18:44:28.383Z,14.30
2022-12-06T18:46:56.758Z,14.30
2022-12-06T18:49:25.133Z,14.30
2022-12-06T18:51:53.550Z,14.20
2022-12-06T18:54:21.925Z,14.20
2022-12-06T18:56:50.343Z,14.30
2022-12-06T18:59:21.995Z,14.30
2022-12-06T19:01:54.342Z,14.20
2022-12-06T19:04:22.731Z,14.20
2022-12-06T19:06:51.798Z,14.20
2022-12-06T19:09:20.547Z,14.20
2022-12-06T19:11:49.449Z,14.20
2022-12-06T19:14:17.871Z,14.20
2022-12-06T19:16:46.994Z,14.20
2022-12-06T19:19:17.732Z,14.20
2022-12-06T19:21:46.761Z,14.20
2022-12-06T19:24:16.622Z,14.20
2022-12-06T19:26:45.351Z,14.20
2022-12-06T19:29:14.229Z,14.10
2022-12-06T19:31:42.851Z,14.10
2022-12-06T19:34:15.064Z,14.10
2022-12-06T19:36:45.144Z,14.00
2022-12-06T19:39:13.862Z,14.00
2022-12-06T19:41:56.196Z,13.90
2022-12-06T19:44:24.599Z,13.90
2022-12-06T19:46:53.223Z,13.90
2022-12-06T19:49:23.024Z,13.80
2022-12-06T19:51:52.936Z,13.80
2022-12-06T19:54:22.528Z,13.80
2022-12-06T19:56:53.150Z,13.80
2022-12-06T19:59:21.569Z,13.80
2022-12-06T20:01:50.617Z,13.70
2022-12-06T20:04:20.461Z,13.70
2022-12-06T20:06:49.220Z,13.70
2022-12-06T20:09:19.609Z,13.70
2022-12-06T20:12:03.866Z,13.70
2022-12-06T20:14:36.710Z,13.70
2022-12-06T20:17:05.714Z,13.60
2022-12-06T20:19:34.961Z,13.60
2022-12-06T20:22:03.390Z,13.60
2022-12-06T20:24:33.454Z,13.60
2022-12-06T20:27:01.867Z,13.60
2022-12-06T20:29:32.853Z,13.60
2022-12-06T20:32:01.763Z,13.60
2022-12-06T20:34:33.924Z,13.60
2022-12-06T20:37:04.221Z,13.50
2022-12-06T20:39:35.866Z,13.50
2022-12-06T20:42:06.047Z,13.50
2022-12-06T20:44:34.621Z,13.50
2022-12-06T20:47:03.127Z,13.50
2022-12-06T20:49:31.709Z,13.50
2022-12-06T20:52:02.211Z,13.40
2022-12-06T20:54:30.676Z,13.40
2022-12-06T20:57:00.508Z,13.40
2022-12-06T20:59:29.469Z,13.40
2022-12-06T21:01:58.124Z,13.40
2022-12-06T21:04:28.059Z,13.40
2022-12-06T21:06:56.476Z,13.30
2022-12-06T21:09:24.983Z,13.30
2022-12-06T21:11:53.438Z,13.30
2022-12-06T21:14:23.422Z,13.30
2022-12-06T21:16:51.772Z,13.30
2022-12-06T21:19:20.692Z,13.30
2022-12-06T21:21:50.286Z,13.20
2022-12-06T21:24:20.072Z,13.20
2022-12-06T21:26:48.748Z,13.20
2022-12-06T21:29:18.204Z,13.20
2022-12-06T21:31:48.026Z,13.20
2022-12-06T21:34:16.480Z,13.20
2022-12-06T21:36:45.174Z,13.20
2022-12-06T21:39:13.955Z,13.20
2022-12-06T21:41:42.353Z,13.20
2022-12-06T21:44:10.992Z,13.20
2022-12-06T21:46:39.530Z,13.20
2022-12-06T21:49:10.782Z,13.10
2022-12-06T21:51:39.176Z,13.10
2022-12-06T21:54:07.651Z,13.10
2022-12-06T21:56:36.089Z,13.10
2022-12-06T21:59:04.428Z,13.10
2022-12-06T22:01:32.970Z,13.20
2022-12-06T22:04:02.350Z,13.10
2022-12-06T22:06:32.673Z,13.10
2022-12-06T22:09:02.644Z,13.10
2022-12-06T22:11:31.475Z,13.10
2022-12-06T22:14:00.835Z,13.10
2022-12-06T22:16:30.019Z,13.10
2022-12-06T22:18:58.522Z,13.20
2022-12-06T22:21:28.047Z,13.20
2022-12-06T22:23:58.619Z,13.20
2022-12-06T22:26:28.358Z,13.10
2022-12-06T22:28:57.143Z,13.10
2022-12-06T22:31:26.625Z,13.10
2022-12-06T22:33:55.418Z,13.00
2022-12-06T22:36:24.225Z,13.00
2022-12-06T22:38:53.959Z,13.00
2022-12-06T22:41:24.363Z,13.00
2022-12-06T22:43:53.306Z,13.00
2022-12-06T22:46:21.824Z,13.00
2022-12-06T22:48:50.973Z,13.00
2022-12-06T22:51:20.766Z,13.00
2022-12-06T22:53:49.879Z,13.00
2022-12-06T22:56:18.410Z,13.00
2022-12-06T22:58:48.198Z,13.00
2022-12-06T23:01:17.517Z,13.00
2022-12-06T23:03:46.239Z,13.00
2022-12-06T23:06:15.177Z,13.00
2022-12-06T23:08:44.062Z,13.00
2022-12-06T23:11:13.695Z,13.00
2022-12-06T23:13:42.089Z,13.00
2022-12-06T23:16:13.117Z,13.00
2022-12-06T23:18:41.617Z,13.00
2022-12-06T23:21:11.733Z,13.00
2022-12-06T23:23:41.297Z,12.90
2022-12-06T23:26:11.144Z,13.00
2022-12-06T23:28:39.687Z,12.90
2022-12-06T23:31:09.376Z,12.90
2022-12-06T23:33:39.224Z,13.00
2022-12-06T23:36:08.881Z,13.00
2022-12-06T23:38:37.649Z,13.10
2022-12-06T23:41:06.878Z,13.00
2022-12-06T23:43:35.633Z,13.00
2022-12-06T23:46:07.709Z,13.00
2022-12-06T23:48:36.722Z,13.00
2022-12-06T23:51:07.531Z,13.10
2022-12-06T23:53:37.368Z,13.10
2022-12-06T23:56:07.007Z,13.10
2022-12-06T23:58:35.825Z,13.10
